Wetterdaten: Woche 11.04.16 - 17.04.16 (KW15)
Datum Zeit Temp. I. Temp. A. Feuchte I. Feuchte A. Luftdruck Regen Wind Richtung Sonnenschein UV Solar Taupunkt Windchill Windben
11.04.2016 00:00 23,1 C 4,2 C 41 % 85 % 1014,4 hPa 0,0 l/m 0,6 km/h (0 Bft) NO 0,00 h 0,0 UV-I 0 W/m 1,9 C 4,2 C 2,1 km/h (1 Bft)
11.04.2016 01:00 22,9 C 3,7 C 42 % 87 % 1014,4 hPa 0,0 l/m 0,2 km/h (0 Bft) N-NO 0,00 h 0,0 UV-I 0 W/m 1,8 C 3,7 C 1,0 km/h (0 Bft)
11.04.2016 02:00 22,9 C 3,5 C 42 % 89 % 1014,3 hPa 0,0 l/m 1,1 km/h (1 Bft) N-NO 0,00 h 0,0 UV-I 0 W/m 1,8 C 3,5 C 2,8 km/h (1 Bft)
11.04.2016 03:00 22,8 C 3,9 C 42 % 90 % 1014,3 hPa 0,0 l/m 0,0 km/h (0 Bft) N 0,00 h 0,0 UV-I 0 W/m 2,5 C 3,9 C 0,0 km/h (0 Bft)
11.04.2016 04:00 22,8 C 4,9 C 43 % 88 % 1014,2 hPa 0,0 l/m 1,5 km/h (1 Bft) O-NO 0,00 h 0,0 UV-I 0 W/m 3,2 C 4,9 C 4,4 km/h (1 Bft)
11.04.2016 05:00 22,9 C 5,2 C 43 % 84 % 1014,3 hPa 0,0 l/m 2,0 km/h (1 Bft) O-NO 0,00 h 0,0 UV-I 0 W/m 2,7 C 5,1 C 4,6 km/h (1 Bft)
11.04.2016 06:00 23,1 C 5,1 C 44 % 85 % 1014,5 hPa 0,0 l/m 1,0 km/h (0 Bft) O-NO 0,00 h 0,0 UV-I 0 W/m 2,8 C 5,1 C 2,6 km/h (1 Bft)
11.04.2016 07:00 23,2 C 5,2 C 44 % 86 % 1014,6 hPa 0,0 l/m 2,0 km/h (1 Bft) O-NO 0,00 h 0,0 UV-I 17 W/m 3,0 C 5,1 C 4,8 km/h (1 Bft)
11.04.2016 08:00 23,5 C 5,3 C 43 % 86 % 1014,6 hPa 0,0 l/m 4,0 km/h (1 Bft) O-NO 0,00 h 0,0 UV-I 36 W/m 3,3 C 4,9 C 7,7 km/h (2 Bft)
11.04.2016 09:00 23,6 C 5,6 C 41 % 84 % 1014,6 hPa 0,0 l/m 3,4 km/h (1 Bft) O 0,00 h 0,6 UV-I 70 W/m 3,1 C 5,1 C 7,6 km/h (2 Bft)
11.04.2016 10:00 23,3 C 6,0 C 39 % 83 % 1014,7 hPa 0,0 l/m 2,7 km/h (1 Bft) O-SO 0,00 h 0,7 UV-I 91 W/m 3,2 C 5,7 C 6,0 km/h (2 Bft)
11.04.2016 11:00 23,1 C 6,7 C 38 % 80 % 1014,6 hPa 0,0 l/m 2,7 km/h (1 Bft) O-SO 0,77 h 1,4 UV-I 186 W/m 3,4 C 6,5 C 6,8 km/h (2 Bft)
11.04.2016 12:00 23,3 C 7,8 C 38 % 76 % 1014,3 hPa 0,0 l/m 4,1 km/h (1 Bft) O-SO 1,00 h 1,7 UV-I 231 W/m 3,8 C 7,2 C 9,1 km/h (2 Bft)
11.04.2016 13:00 23,1 C 8,6 C 38 % 75 % 1013,9 hPa 0,0 l/m 4,1 km/h (1 Bft) SO 1,00 h 1,9 UV-I 249 W/m 4,4 C 8,1 C 8,0 km/h (2 Bft)
11.04.2016 14:00 23,2 C 9,4 C 38 % 74 % 1013,6 hPa 0,0 l/m 5,4 km/h (1 Bft) SO 1,00 h 1,8 UV-I 271 W/m 4,9 C 8,9 C 10,9 km/h (2 Bft)
11.04.2016 15:00 23,3 C 10,5 C 39 % 71 % 1012,9 hPa 0,0 l/m 3,5 km/h (1 Bft) O-SO 1,00 h 1,9 UV-I 297 W/m 5,4 C 10,1 C 7,9 km/h (2 Bft)
11.04.2016 16:00 23,5 C 11,3 C 39 % 68 % 1012,4 hPa 0,0 l/m 4,3 km/h (1 Bft) SO 1,00 h 1,6 UV-I 320 W/m 5,7 C 11,0 C 9,6 km/h (2 Bft)
11.04.2016 17:00 23,4 C 11,4 C 39 % 68 % 1012,3 hPa 0,0 l/m 6,8 km/h (2 Bft) SO 0,78 h 1,0 UV-I 225 W/m 5,6 C 10,2 C 12,8 km/h (3 Bft)
11.04.2016 18:00 23,6 C 10,9 C 40 % 69 % 1012,4 hPa 0,0 l/m 2,5 km/h (1 Bft) O 0,25 h 0,6 UV-I 99 W/m 5,5 C 10,8 C 6,3 km/h (2 Bft)
11.04.2016 19:00 23,8 C 10,0 C 42 % 74 % 1012,5 hPa 0,0 l/m 0,3 km/h (0 Bft) NO 0,00 h 0,0 UV-I 18 W/m 5,6 C 10,0 C 0,8 km/h (0 Bft)
11.04.2016 20:00 23,6 C 8,5 C 42 % 81 % 1012,6 hPa 0,0 l/m 0,0 km/h (0 Bft) N 0,00 h 0,0 UV-I 0 W/m 5,4 C 8,5 C 0,0 km/h (0 Bft)
11.04.2016 21:00 23,5 C 7,5 C 42 % 85 % 1012,5 hPa 0,0 l/m 0,0 km/h (0 Bft) N 0,00 h 0,0 UV-I 0 W/m 5,1 C 7,5 C 0,0 km/h (0 Bft)
11.04.2016 22:00 23,5 C 6,4 C 42 % 84 % 1013,0 hPa 0,0 l/m 0,0 km/h (0 Bft) N 0,00 h 0,0 UV-I 0 W/m 4,0 C 6,4 C 0,0 km/h (0 Bft)
11.04.2016 23:00 23,5 C 5,1 C 43 % 86 % 1013,1 hPa 0,0 l/m 0,0 km/h (0 Bft) N 0,00 h 0,0 UV-I 0 W/m 3,0 C 5,1 C 0,0 km/h (0 Bft)
12.04.2016 00:00 23,2 C 3,9 C 43 % 88 % 1012,9 hPa 0,0 l/m 0,0 km/h (0 Bft) N 0,00 h 0,0 UV-I 0 W/m 2,0 C 3,9 C 0,0 km/h (0 Bft)
12.04.2016 01:00 23,1 C 3,1 C 44 % 90 % 1012,9 hPa 0,0 l/m 0,0 km/h (0 Bft) N 0,00 h 0,0 UV-I 0 W/m 1,5 C 3,1 C 0,0 km/h (0 Bft)
12.04.2016 02:00 22,9 C 2,6 C 44 % 91 % 1012,6 hPa 0,0 l/m 0,0 km/h (0 Bft) N 0,00 h 0,0 UV-I 0 W/m 1,2 C 2,6 C 0,0 km/h (0 Bft)
12.04.2016 03:00 22,9 C 1,9 C 45 % 90 % 1012,3 hPa 0,0 l/m 0,0 km/h (0 Bft) N 0,00 h 0,0 UV-I 0 W/m 0,5 C 1,9 C 0,0 km/h (0 Bft)
12.04.2016 04:00 22,8 C 1,1 C 45 % 90 % 1012,1 hPa 0,0 l/m 0,0 km/h (0 Bft) N 0,00 h 0,0 UV-I 0 W/m -0,3 C 1,1 C 0,0 km/h (0 Bft)
12.04.2016 05:00 22,8 C 0,6 C 45 % 91 % 1011,9 hPa 0,0 l/m 0,0 km/h (0 Bft) N 0,00 h 0,0 UV-I 0 W/m -0,7 C 0,6 C 0,0 km/h (0 Bft)
12.04.2016 06:00 23,0 C 0,5 C 45 % 93 % 1012,1 hPa 0,0 l/m 0,0 km/h (0 Bft) N 0,00 h 0,0 UV-I 16 W/m -0,6 C 0,5 C 0,0 km/h (0 Bft)
12.04.2016 07:00 23,1 C 0,9 C 44 % 94 % 1012,4 hPa 0,0 l/m 0,0 km/h (0 Bft) N 0,00 h 0,0 UV-I 52 W/m 0,1 C 0,9 C 0,0 km/h (0 Bft)
12.04.2016 08:00 23,2 C 2,8 C 43 % 95 % 1012,8 hPa 0,0 l/m 0,0 km/h (0 Bft) N 0,78 h 0,7 UV-I 205 W/m 2,1 C 2,8 C 0,0 km/h (0 Bft)
12.04.2016 09:00 23,2 C 6,5 C 42 % 89 % 1012,9 hPa 0,0 l/m 0,0 km/h (0 Bft) N 1,00 h 1,4 UV-I 406 W/m 4,8 C 6,5 C 0,0 km/h (0 Bft)
12.04.2016 10:00 22,6 C 10,9 C 41 % 80 % 1012,9 hPa 0,0 l/m 0,6 km/h (0 Bft) S 1,00 h 2,1 UV-I 467 W/m 7,6 C 10,9 C 2,3 km/h (1 Bft)
12.04.2016 11:00 22,4 C 13,2 C 42 % 72 % 1012,6 hPa 0,0 l/m 1,7 km/h (1 Bft) W-SW 1,00 h 3,2 UV-I 659 W/m 8,2 C 13,2 C 5,0 km/h (1 Bft)
12.04.2016 12:00 22,1 C 14,7 C 42 % 66 % 1012,4 hPa 0,0 l/m 2,5 km/h (1 Bft) S 1,00 h 3,6 UV-I 706 W/m 8,4 C 14,6 C 5,8 km/h (2 Bft)
12.04.2016 13:00 22,1 C 15,9 C 41 % 58 % 1012,0 hPa 0,0 l/m 3,2 km/h (1 Bft) S 1,00 h 3,2 UV-I 688 W/m 7,7 C 15,8 C 7,5 km/h (2 Bft)
12.04.2016 14:00 21,9 C 16,5 C 41 % 52 % 1011,6 hPa 0,0 l/m 5,0 km/h (1 Bft) W-SW 1,00 h 2,5 UV-I 445 W/m 6,6 C 16,3 C 10,3 km/h (2 Bft)
12.04.2016 15:00 22,3 C 15,8 C 41 % 54 % 1011,3 hPa 0,0 l/m 2,7 km/h (1 Bft) W-SW 1,00 h 1,9 UV-I 364 W/m 6,5 C 15,8 C 6,6 km/h (2 Bft)
12.04.2016 16:00 22,6 C 15,9 C 41 % 55 % 1010,7 hPa 0,0 l/m 3,3 km/h (1 Bft) W-SW 0,83 h 1,1 UV-I 209 W/m 6,9 C 15,7 C 5,8 km/h (1 Bft)
12.04.2016 17:00 22,1 C 15,7 C 40 % 56 % 1010,5 hPa 0,0 l/m 2,3 km/h (1 Bft) W-SW 0,60 h 0,9 UV-I 230 W/m 6,9 C 15,7 C 5,5 km/h (1 Bft)
12.04.2016 18:00 22,5 C 15,4 C 42 % 57 % 1010,2 hPa 0,0 l/m 2,4 km/h (1 Bft) W-SW 0,47 h 0,5 UV-I 125 W/m 6,8 C 15,3 C 5,4 km/h (1 Bft)
12.04.2016 19:00 22,7 C 14,2 C 44 % 61 % 1009,8 hPa 0,0 l/m 0,1 km/h (0 Bft) W-SW 0,00 h 0,0 UV-I 19 W/m 6,7 C 14,2 C 0,3 km/h (0 Bft)
12.04.2016 20:00 22,7 C 11,6 C 44 % 73 % 1009,7 hPa 0,0 l/m 0,0 km/h (0 Bft) N 0,00 h 0,0 UV-I 0 W/m 6,8 C 11,6 C 0,0 km/h (0 Bft)
12.04.2016 21:00 22,7 C 9,9 C 44 % 80 % 1009,9 hPa 0,0 l/m 0,0 km/h (0 Bft) N 0,00 h 0,0 UV-I 0 W/m 6,6 C 9,9 C 0,0 km/h (0 Bft)
12.04.2016 22:00 22,9 C 8,8 C 46 % 83 % 1009,7 hPa 0,0 l/m 0,0 km/h (0 Bft) N 0,00 h 0,0 UV-I 0 W/m 6,1 C 8,8 C 0,0 km/h (0 Bft)
12.04.2016 23:00 22,9 C 8,0 C 46 % 84 % 1009,7 hPa 0,0 l/m 0,0 km/h (0 Bft) N 0,00 h 0,0 UV-I 0 W/m 5,5 C 8,0 C 0,0 km/h (0 Bft)
13.04.2016 00:00 22,7 C 7,2 C 46 % 87 % 1009,8 hPa 0,0 l/m 0,0 km/h (0 Bft) N 0,00 h 0,0 UV-I 0 W/m 5,1 C 7,2 C 0,0 km/h (0 Bft)
13.04.2016 01:00 22,6 C 7,0 C 46 % 90 % 1009,7 hPa 0,0 l/m 0,5 km/h (0 Bft) O-SO 0,00 h 0,0 UV-I 0 W/m 5,5 C 7,0 C 1,2 km/h (1 Bft)
13.04.2016 02:00 22,5 C 7,5 C 46 % 90 % 1009,7 hPa 0,0 l/m 0,1 km/h (0 Bft) O 0,00 h 0,0 UV-I 0 W/m 5,9 C 7,5 C 0,2 km/h (0 Bft)
13.04.2016 03:00 22,4 C 8,1 C 47 % 89 % 1009,4 hPa 0,0 l/m 0,4 km/h (0 Bft) O 0,00 h 0,0 UV-I 0 W/m 6,4 C 8,1 C 1,0 km/h (0 Bft)
13.04.2016 04:00 22,4 C 8,2 C 47 % 90 % 1008,9 hPa 0,0 l/m 0,5 km/h (0 Bft) W-NW 0,00 h 0,0 UV-I 0 W/m 6,6 C 8,2 C 1,3 km/h (1 Bft)
13.04.2016 05:00 22,4 C 7,6 C 47 % 90 % 1008,9 hPa 0,0 l/m 0,2 km/h (0 Bft) NW 0,00 h 0,0 UV-I 0 W/m 6,1 C 7,6 C 0,8 km/h (0 Bft)
13.04.2016 06:00 22,5 C 7,3 C 47 % 92 % 1008,8 hPa 0,0 l/m 0,1 km/h (0 Bft) O-SO 0,00 h 0,0 UV-I 6 W/m 6,0 C 7,3 C 0,2 km/h (0 Bft)
13.04.2016 07:00 22,5 C 7,4 C 47 % 93 % 1008,8 hPa 0,0 l/m 0,1 km/h (0 Bft) O-SO 0,20 h 0,5 UV-I 75 W/m 6,4 C 7,4 C 0,3 km/h (0 Bft)
13.04.2016 08:00 22,7 C 9,2 C 48 % 88 % 1008,5 hPa 0,0 l/m 0,2 km/h (0 Bft) O-SO 0,25 h 0,5 UV-I 139 W/m 7,2 C 9,2 C 0,6 km/h (0 Bft)
13.04.2016 09:00 22,9 C 10,3 C 47 % 81 % 1008,2 hPa 0,0 l/m 1,2 km/h (1 Bft) W-SW 0,30 h 0,8 UV-I 142 W/m 7,2 C 10,3 C 2,5 km/h (1 Bft)
13.04.2016 10:00 22,8 C 12,3 C 46 % 72 % 1008,1 hPa 0,0 l/m 0,2 km/h (0 Bft) W-SW 1,00 h 2,3 UV-I 499 W/m 7,5 C 12,3 C 0,9 km/h (0 Bft)
13.04.2016 11:00 23,1 C 14,3 C 46 % 62 % 1007,5 hPa 0,0 l/m 0,8 km/h (0 Bft) SO 1,00 h 3,2 UV-I 599 W/m 7,0 C 14,3 C 3,2 km/h (1 Bft)
13.04.2016 12:00 23,2 C 13,9 C 45 % 65 % 1006,9 hPa 0,2 l/m 0,6 km/h (0 Bft) S-SO 0,75 h 1,9 UV-I 324 W/m 7,4 C 13,9 C 1,7 km/h (1 Bft)
13.04.2016 13:00 23,1 C 15,7 C 45 % 61 % 1006,2 hPa 0,0 l/m 1,8 km/h (1 Bft) W-SW 1,00 h 3,7 UV-I 648 W/m 8,1 C 15,7 C 4,6 km/h (1 Bft)
13.04.2016 14:00 23,1 C 17,1 C 45 % 54 % 1005,6 hPa 0,0 l/m 2,8 km/h (1 Bft) W 1,00 h 3,7 UV-I 665 W/m 7,7 C 16,9 C 6,1 km/h (2 Bft)
13.04.2016 15:00 23,1 C 16,7 C 46 % 54 % 1004,9 hPa 0,0 l/m 3,1 km/h (1 Bft) W-SW 0,85 h 1,9 UV-I 368 W/m 7,3 C 16,7 C 6,3 km/h (2 Bft)
13.04.2016 16:00 23,2 C 16,0 C 46 % 56 % 1004,4 hPa 0,0 l/m 3,6 km/h (1 Bft) W 0,47 h 1,0 UV-I 164 W/m 7,2 C 15,9 C 7,1 km/h (2 Bft)
13.04.2016 17:00 23,5 C 13,7 C 46 % 69 % 1004,9 hPa 0,8 l/m 8,6 km/h (2 Bft) W-SW 0,00 h 0,5 UV-I 19 W/m 7,9 C 11,8 C 15,6 km/h (3 Bft)
13.04.2016 18:00 23,9 C 10,1 C 48 % 91 % 1005,9 hPa 1,8 l/m 1,0 km/h (0 Bft) W-SW 0,00 h 0,0 UV-I 20 W/m 8,8 C 10,0 C 2,7 km/h (1 Bft)
13.04.2016 19:00 24,1 C 10,1 C 50 % 93 % 1005,5 hPa 0,0 l/m 0,5 km/h (0 Bft) W-SW 0,00 h 0,0 UV-I 27 W/m 9,0 C 10,1 C 1,3 km/h (1 Bft)
13.04.2016 20:00 23,8 C 9,8 C 50 % 93 % 1006,1 hPa 0,0 l/m 0,3 km/h (0 Bft) W 0,00 h 0,0 UV-I 5 W/m 8,8 C 9,8 C 1,1 km/h (1 Bft)
13.04.2016 21:00 23,7 C 9,2 C 50 % 93 % 1006,8 hPa 0,0 l/m 0,5 km/h (0 Bft) W-SW 0,00 h 0,0 UV-I 0 W/m 8,1 C 9,2 C 1,4 km/h (1 Bft)
13.04.2016 22:00 23,8 C 8,8 C 49 % 93 % 1006,8 hPa 0,0 l/m 0,3 km/h (0 Bft) SW 0,00 h 0,0 UV-I 0 W/m 7,7 C 8,8 C 1,3 km/h (1 Bft)
13.04.2016 23:00 23,6 C 8,6 C 49 % 93 % 1007,0 hPa 0,0 l/m 0,1 km/h (0 Bft) W-SW 0,00 h 0,0 UV-I 0 W/m 7,5 C 8,6 C 0,2 km/h (0 Bft)
14.04.2016 00:00 23,3 C 8,6 C 49 % 93 % 1007,0 hPa 0,0 l/m 0,1 km/h (0 Bft) S-SW 0,00 h 0,0 UV-I 0 W/m 7,6 C 8,6 C 0,3 km/h (0 Bft)
14.04.2016 01:00 23,1 C 8,6 C 49 % 94 % 1006,8 hPa 1,4 l/m 0,7 km/h (0 Bft) SW 0,00 h 0,0 UV-I 0 W/m 7,8 C 8,6 C 2,3 km/h (1 Bft)
14.04.2016 02:00 23,0 C 8,4 C 49 % 95 % 1006,7 hPa 0,0 l/m 0,8 km/h (0 Bft) W-SW 0,00 h 0,0 UV-I 0 W/m 7,7 C 8,4 C 2,3 km/h (1 Bft)
14.04.2016 03:00 22,9 C 8,3 C 49 % 95 % 1006,9 hPa 0,2 l/m 0,8 km/h (0 Bft) W-SW 0,00 h 0,0 UV-I 0 W/m 7,6 C 8,3 C 2,5 km/h (1 Bft)
14.04.2016 04:00 22,9 C 8,2 C 50 % 96 % 1007,0 hPa 0,2 l/m 2,0 km/h (1 Bft) W-NW 0,00 h 0,0 UV-I 0 W/m 7,6 C 8,2 C 4,9 km/h (1 Bft)
14.04.2016 05:00 22,9 C 7,9 C 50 % 96 % 1007,3 hPa 0,2 l/m 2,7 km/h (1 Bft) W-NW 0,00 h 0,0 UV-I 0 W/m 7,3 C 7,8 C 5,9 km/h (2 Bft)
14.04.2016 06:00 22,8 C 7,3 C 50 % 95 % 1008,2 hPa 0,0 l/m 2,1 km/h (1 Bft) NW 0,00 h 0,0 UV-I 10 W/m 6,6 C 7,2 C 6,3 km/h (2 Bft)
14.04.2016 07:00 22,8 C 6,9 C 49 % 93 % 1009,0 hPa 0,0 l/m 2,4 km/h (1 Bft) NW 0,00 h 0,0 UV-I 18 W/m 5,8 C 6,7 C 5,3 km/h (1 Bft)
14.04.2016 08:00 22,9 C 7,1 C 47 % 90 % 1009,7 hPa 0,0 l/m 1,4 km/h (1 Bft) W-NW 0,28 h 0,7 UV-I 117 W/m 5,7 C 7,1 C 3,6 km/h (1 Bft)
14.04.2016 09:00 22,9 C 8,8 C 46 % 83 % 1010,0 hPa 0,0 l/m 4,9 km/h (1 Bft) W-NW 0,90 h 1,4 UV-I 343 W/m 6,2 C 8,3 C 10,5 km/h (2 Bft)
14.04.2016 10:00 23,0 C 10,1 C 46 % 75 % 1010,3 hPa 0,0 l/m 8,0 km/h (2 Bft) W-NW 0,92 h 1,8 UV-I 337 W/m 5,8 C 8,4 C 14,4 km/h (3 Bft)
14.04.2016 11:00 22,9 C 10,1 C 44 % 74 % 1010,9 hPa 0,0 l/m 8,2 km/h (2 Bft) NW 0,75 h 1,5 UV-I 234 W/m 5,7 C 8,5 C 14,1 km/h (3 Bft)
14.04.2016 12:00 23,1 C 10,6 C 43 % 72 % 1011,2 hPa 0,0 l/m 9,4 km/h (2 Bft) W-NW 0,92 h 2,3 UV-I 340 W/m 5,8 C 8,5 C 15,3 km/h (3 Bft)
14.04.2016 13:00 22,8 C 10,7 C 43 % 76 % 1011,4 hPa 0,2 l/m 9,8 km/h (2 Bft) N-NW 0,63 h 1,9 UV-I 250 W/m 6,6 C 8,5 C 16,0 km/h (3 Bft)
14.04.2016 14:00 22,9 C 10,1 C 44 % 81 % 1012,0 hPa 0,2 l/m 1,7 km/h (1 Bft) NW 0,73 h 1,7 UV-I 245 W/m 6,9 C 9,9 C 4,1 km/h (1 Bft)
14.04.2016 15:00 23,1 C 10,3 C 44 % 76 % 1011,9 hPa 0,0 l/m 2,2 km/h (1 Bft) W-NW 0,63 h 1,1 UV-I 173 W/m 6,3 C 10,3 C 5,3 km/h (1 Bft)
14.04.2016 16:00 22,5 C 12,6 C 40 % 63 % 1011,6 hPa 0,0 l/m 3,2 km/h (1 Bft) NW 1,00 h 1,6 UV-I 295 W/m 5,8 C 12,4 C 7,1 km/h (2 Bft)
14.04.2016 17:00 22,3 C 12,8 C 39 % 59 % 1011,6 hPa 0,0 l/m 2,6 km/h (1 Bft) W-NW 0,37 h 0,9 UV-I 181 W/m 4,9 C 12,7 C 5,8 km/h (2 Bft)
14.04.2016 18:00 21,9 C 11,8 C 39 % 65 % 1011,9 hPa 0,0 l/m 0,9 km/h (0 Bft) N 0,03 h 0,5 UV-I 74 W/m 5,5 C 11,8 C 2,1 km/h (1 Bft)
14.04.2016 19:00 22,6 C 11,0 C 41 % 67 % 1012,3 hPa 0,0 l/m 0,0 km/h (0 Bft) N 0,00 h 0,0 UV-I 22 W/m 5,1 C 11,0 C 0,0 km/h (0 Bft)
14.04.2016 20:00 23,0 C 9,1 C 41 % 77 % 1012,6 hPa 0,0 l/m 0,0 km/h (0 Bft) N 0,00 h 0,0 UV-I 0 W/m 5,2 C 9,1 C 0,0 km/h (0 Bft)
14.04.2016 21:00 23,1 C 7,4 C 42 % 84 % 1012,8 hPa 0,0 l/m 0,0 km/h (0 Bft) N 0,00 h 0,0 UV-I 0 W/m 4,9 C 7,4 C 0,0 km/h (0 Bft)
14.04.2016 22:00 23,1 C 6,3 C 42 % 86 % 1012,6 hPa 0,0 l/m 0,0 km/h (0 Bft) N 0,00 h 0,0 UV-I 0 W/m 4,1 C 6,3 C 0,0 km/h (0 Bft)
14.04.2016 23:00 23,1 C 5,0 C 43 % 87 % 1012,7 hPa 0,0 l/m 0,0 km/h (0 Bft) N 0,00 h 0,0 UV-I 0 W/m 3,0 C 5,0 C 0,0 km/h (0 Bft)
15.04.2016 00:00 22,8 C 3,9 C 44 % 89 % 1012,5 hPa 0,0 l/m 0,0 km/h (0 Bft) N 0,00 h 0,0 UV-I 0 W/m 2,2 C 3,9 C 0,0 km/h (0 Bft)
15.04.2016 01:00 22,6 C 3,1 C 45 % 91 % 1012,2 hPa 0,0 l/m 0,0 km/h (0 Bft) N 0,00 h 0,0 UV-I 0 W/m 1,7 C 3,1 C 0,0 km/h (0 Bft)
15.04.2016 02:00 22,6 C 2,5 C 45 % 91 % 1011,8 hPa 0,0 l/m 0,0 km/h (0 Bft) N 0,00 h 0,0 UV-I 0 W/m 1,2 C 2,5 C 0,0 km/h (0 Bft)
15.04.2016 03:00 22,4 C 2,1 C 45 % 92 % 1011,5 hPa 0,0 l/m 0,0 km/h (0 Bft) N 0,00 h 0,0 UV-I 0 W/m 0,9 C 2,1 C 0,0 km/h (0 Bft)
15.04.2016 04:00 22,4 C 1,8 C 45 % 92 % 1010,8 hPa 0,0 l/m 0,0 km/h (0 Bft) N 0,00 h 0,0 UV-I 0 W/m 0,6 C 1,8 C 0,0 km/h (0 Bft)
15.04.2016 05:00 22,5 C 1,9 C 46 % 93 % 1010,3 hPa 0,0 l/m 0,0 km/h (0 Bft) N 0,00 h 0,0 UV-I 0 W/m 1,0 C 1,9 C 0,0 km/h (0 Bft)
15.04.2016 06:00 22,8 C 2,5 C 46 % 94 % 1009,7 hPa 0,0 l/m 0,0 km/h (0 Bft) N 0,00 h 0,0 UV-I 10 W/m 1,6 C 2,5 C 0,0 km/h (0 Bft)
15.04.2016 07:00 22,8 C 3,2 C 46 % 95 % 1009,4 hPa 0,0 l/m 0,0 km/h (0 Bft) N 0,00 h 0,0 UV-I 56 W/m 2,5 C 3,2 C 0,0 km/h (0 Bft)
15.04.2016 08:00 22,4 C 5,5 C 43 % 94 % 1008,9 hPa 0,0 l/m 0,0 km/h (0 Bft) N 0,00 h 0,5 UV-I 92 W/m 4,5 C 5,5 C 0,0 km/h (0 Bft)
15.04.2016 09:00 22,6 C 6,5 C 43 % 91 % 1008,5 hPa 0,0 l/m 0,0 km/h (0 Bft) N 0,00 h 0,5 UV-I 75 W/m 5,1 C 6,5 C 0,0 km/h (0 Bft)
15.04.2016 10:00 22,6 C 7,6 C 44 % 89 % 1008,9 hPa 0,4 l/m 2,9 km/h (1 Bft) S 0,00 h 0,6 UV-I 76 W/m 5,9 C 7,4 C 5,9 km/h (2 Bft)
15.04.2016 11:00 23,0 C 7,8 C 45 % 92 % 1008,7 hPa 0,2 l/m 8,4 km/h (2 Bft) S 0,20 h 1,0 UV-I 139 W/m 6,5 C 6,1 C 14,0 km/h (3 Bft)
15.04.2016 12:00 23,4 C 8,2 C 44 % 92 % 1008,3 hPa 0,2 l/m 6,9 km/h (2 Bft) S 0,12 h 0,9 UV-I 100 W/m 6,9 C 6,9 C 12,7 km/h (3 Bft)
15.04.2016 13:00 23,5 C 8,3 C 44 % 92 % 1008,1 hPa 0,0 l/m 7,4 km/h (2 Bft) S 0,07 h 0,8 UV-I 94 W/m 7,0 C 7,1 C 14,0 km/h (3 Bft)
15.04.2016 14:00 23,6 C 8,2 C 44 % 92 % 1007,8 hPa 0,0 l/m 6,1 km/h (2 Bft) S 0,00 h 0,6 UV-I 51 W/m 7,0 C 7,4 C 12,2 km/h (2 Bft)
15.04.2016 15:00 23,4 C 8,3 C 44 % 92 % 1007,7 hPa 0,0 l/m 1,9 km/h (1 Bft) S 0,00 h 0,6 UV-I 34 W/m 7,1 C 8,3 C 5,1 km/h (1 Bft)
15.04.2016 16:00 23,5 C 10,1 C 45 % 88 % 1007,5 hPa 0,0 l/m 4,9 km/h (1 Bft) S 0,72 h 1,3 UV-I 280 W/m 8,2 C 9,6 C 9,8 km/h (2 Bft)
15.04.2016 17:00 23,7 C 11,0 C 45 % 81 % 1007,2 hPa 0,0 l/m 6,0 km/h (2 Bft) S 0,60 h 0,9 UV-I 194 W/m 7,9 C 10,4 C 12,1 km/h (2 Bft)
15.04.2016 18:00 23,9 C 11,1 C 45 % 79 % 1007,0 hPa 0,0 l/m 2,6 km/h (1 Bft) S 0,08 h 0,6 UV-I 71 W/m 7,5 C 11,1 C 6,8 km/h (2 Bft)
15.04.2016 19:00 24,0 C 10,8 C 46 % 77 % 1006,7 hPa 0,0 l/m 2,2 km/h (1 Bft) S 0,00 h 0,0 UV-I 20 W/m 7,0 C 10,8 C 5,9 km/h (2 Bft)
15.04.2016 20:00 23,8 C 10,0 C 45 % 79 % 1006,9 hPa 0,0 l/m 2,0 km/h (1 Bft) S 0,00 h 0,0 UV-I 0 W/m 6,5 C 10,0 C 5,0 km/h (1 Bft)
15.04.2016 21:00 23,9 C 9,6 C 45 % 85 % 1007,1 hPa 0,0 l/m 3,1 km/h (1 Bft) S-SO 0,00 h 0,0 UV-I 0 W/m 7,2 C 9,6 C 7,0 km/h (2 Bft)
15.04.2016 22:00 23,9 C 9,3 C 45 % 89 % 1007,3 hPa 0,0 l/m 6,3 km/h (2 Bft) S 0,00 h 0,0 UV-I 0 W/m 7,6 C 8,8 C 11,6 km/h (2 Bft)
15.04.2016 23:00 23,6 C 9,2 C 46 % 91 % 1007,4 hPa 0,0 l/m 4,7 km/h (1 Bft) S 0,00 h 0,0 UV-I 0 W/m 7,7 C 8,9 C 9,0 km/h (2 Bft)
16.04.2016 00:00 23,2 C 9,1 C 47 % 91 % 1007,0 hPa 0,0 l/m 4,3 km/h (1 Bft) S 0,00 h 0,0 UV-I 0 W/m 7,7 C 9,0 C 8,3 km/h (2 Bft)
16.04.2016 01:00 23,1 C 8,9 C 47 % 91 % 1006,8 hPa 0,0 l/m 2,2 km/h (1 Bft) S 0,00 h 0,0 UV-I 0 W/m 7,5 C 8,9 C 5,1 km/h (1 Bft)
16.04.2016 02:00 22,9 C 8,8 C 47 % 91 % 1006,4 hPa 0,0 l/m 1,3 km/h (1 Bft) S 0,00 h 0,0 UV-I 0 W/m 7,4 C 8,8 C 3,5 km/h (1 Bft)
16.04.2016 03:00 22,8 C 8,8 C 48 % 91 % 1005,9 hPa 0,0 l/m 3,5 km/h (1 Bft) S-SO 0,00 h 0,0 UV-I 0 W/m 7,3 C 8,8 C 7,2 km/h (2 Bft)
16.04.2016 04:00 22,8 C 8,7 C 48 % 91 % 1005,7 hPa 0,0 l/m 4,1 km/h (1 Bft) S 0,00 h 0,0 UV-I 0 W/m 7,4 C 8,6 C 8,9 km/h (2 Bft)
16.04.2016 05:00 22,7 C 8,5 C 48 % 93 % 1005,5 hPa 0,0 l/m 8,0 km/h (2 Bft) S 0,00 h 0,0 UV-I 0 W/m 7,4 C 7,0 C 13,6 km/h (3 Bft)
16.04.2016 06:00 22,7 C 8,7 C 48 % 93 % 1004,9 hPa 0,0 l/m 4,0 km/h (1 Bft) S 0,00 h 0,0 UV-I 19 W/m 7,6 C 8,3 C 8,4 km/h (2 Bft)
16.04.2016 07:00 22,7 C 8,9 C 48 % 93 % 1004,8 hPa 0,4 l/m 4,1 km/h (1 Bft) S-SO 0,00 h 0,0 UV-I 30 W/m 7,9 C 8,6 C 8,2 km/h (2 Bft)
16.04.2016 08:00 22,9 C 9,2 C 48 % 94 % 1004,4 hPa 0,2 l/m 4,6 km/h (1 Bft) S 0,00 h 0,5 UV-I 63 W/m 8,3 C 8,7 C 8,7 km/h (2 Bft)
16.04.2016 09:00 23,6 C 9,9 C 48 % 93 % 1003,8 hPa 0,0 l/m 8,2 km/h (2 Bft) S 0,25 h 0,8 UV-I 132 W/m 8,8 C 8,3 C 14,0 km/h (3 Bft)
16.04.2016 10:00 23,8 C 10,3 C 48 % 91 % 1004,4 hPa 0,4 l/m 8,3 km/h (2 Bft) S 0,43 h 1,0 UV-I 145 W/m 8,9 C 8,7 C 15,6 km/h (3 Bft)
16.04.2016 11:00 23,5 C 10,2 C 48 % 93 % 1004,8 hPa 0,2 l/m 12,8 km/h (3 Bft) S 0,52 h 1,1 UV-I 151 W/m 9,0 C 6,5 C 20,3 km/h (4 Bft)
16.04.2016 12:00 23,3 C 10,3 C 48 % 93 % 1005,0 hPa 0,6 l/m 15,2 km/h (3 Bft) S 0,42 h 1,1 UV-I 148 W/m 9,1 C 5,5 C 23,4 km/h (4 Bft)
16.04.2016 13:00 23,4 C 10,2 C 48 % 93 % 1005,2 hPa 0,0 l/m 9,0 km/h (2 Bft) SW 0,13 h 0,9 UV-I 101 W/m 9,1 C 8,2 C 15,2 km/h (3 Bft)
16.04.2016 14:00 23,5 C 10,3 C 48 % 93 % 1005,5 hPa 0,0 l/m 1,6 km/h (1 Bft) W-SW 0,27 h 1,1 UV-I 130 W/m 9,3 C 10,3 C 5,3 km/h (1 Bft)
16.04.2016 15:00 23,5 C 10,9 C 48 % 91 % 1005,7 hPa 0,0 l/m 3,0 km/h (1 Bft) W-SW 0,32 h 1,0 UV-I 125 W/m 9,5 C 10,9 C 8,1 km/h (2 Bft)
16.04.2016 16:00 23,0 C 11,5 C 47 % 86 % 1005,8 hPa 0,0 l/m 4,6 km/h (1 Bft) W-SW 0,87 h 1,2 UV-I 234 W/m 9,3 C 11,2 C 10,6 km/h (2 Bft)
16.04.2016 17:00 23,4 C 12,1 C 48 % 82 % 1005,8 hPa 0,0 l/m 3,1 km/h (1 Bft) SW 0,85 h 1,1 UV-I 276 W/m 9,1 C 12,0 C 7,6 km/h (2 Bft)
16.04.2016 18:00 23,4 C 12,2 C 48 % 82 % 1005,7 hPa 0,0 l/m 1,8 km/h (1 Bft) S 0,17 h 0,6 UV-I 96 W/m 9,1 C 12,2 C 5,2 km/h (1 Bft)
16.04.2016 19:00 23,5 C 11,3 C 48 % 85 % 1005,9 hPa 0,0 l/m 2,3 km/h (1 Bft) S 0,00 h 0,0 UV-I 21 W/m 8,9 C 11,3 C 6,6 km/h (2 Bft)
16.04.2016 20:00 23,6 C 10,3 C 49 % 88 % 1006,0 hPa 0,0 l/m 2,7 km/h (1 Bft) S 0,00 h 0,0 UV-I 0 W/m 8,3 C 10,2 C 6,7 km/h (2 Bft)
16.04.2016 21:00 23,7 C 9,9 C 50 % 90 % 1006,6 hPa 0,0 l/m 4,9 km/h (1 Bft) S 0,00 h 0,0 UV-I 0 W/m 8,3 C 9,6 C 9,7 km/h (2 Bft)
16.04.2016 22:00 23,4 C 9,8 C 49 % 90 % 1005,8 hPa 0,0 l/m 1,9 km/h (1 Bft) S 0,00 h 0,0 UV-I 0 W/m 8,2 C 9,7 C 4,4 km/h (1 Bft)
16.04.2016 23:00 23,4 C 9,3 C 50 % 90 % 1005,1 hPa 0,2 l/m 0,0 km/h (0 Bft) N 0,00 h 0,0 UV-I 0 W/m 7,8 C 9,3 C 0,1 km/h (0 Bft)
17.04.2016 00:00 23,1 C 8,5 C 50 % 91 % 1004,9 hPa 0,6 l/m 1,5 km/h (1 Bft) S 0,00 h 0,0 UV-I 0 W/m 7,2 C 8,5 C 3,1 km/h (1 Bft)
17.04.2016 01:00 22,9 C 8,8 C 50 % 94 % 1004,0 hPa 0,8 l/m 0,3 km/h (0 Bft) O-NO 0,00 h 0,0 UV-I 0 W/m 7,9 C 8,8 C 1,1 km/h (1 Bft)
17.04.2016 02:00 22,8 C 8,8 C 51 % 95 % 1003,6 hPa 0,4 l/m 0,0 km/h (0 Bft) NO 0,00 h 0,0 UV-I 0 W/m 8,0 C 8,8 C 0,2 km/h (0 Bft)
17.04.2016 03:00 22,8 C 8,7 C 51 % 95 % 1004,0 hPa 1,0 l/m 0,5 km/h (0 Bft) W 0,00 h 0,0 UV-I 0 W/m 8,0 C 8,7 C 1,1 km/h (1 Bft)
17.04.2016 04:00 22,7 C 8,7 C 51 % 96 % 1004,1 hPa 0,4 l/m 0,1 km/h (0 Bft) W-SW 0,00 h 0,0 UV-I 0 W/m 8,1 C 8,7 C 0,3 km/h (0 Bft)
17.04.2016 05:00 22,7 C 8,5 C 51 % 96 % 1004,0 hPa 0,6 l/m 0,2 km/h (0 Bft) SO 0,00 h 0,0 UV-I 0 W/m 7,9 C 8,5 C 0,7 km/h (0 Bft)
17.04.2016 06:00 22,7 C 8,4 C 51 % 96 % 1004,0 hPa 0,8 l/m 3,3 km/h (1 Bft) S 0,00 h 0,0 UV-I 16 W/m 7,8 C 8,2 C 5,8 km/h (2 Bft)
17.04.2016 07:00 22,7 C 8,5 C 51 % 96 % 1004,4 hPa 0,0 l/m 3,3 km/h (1 Bft) S 0,00 h 0,0 UV-I 31 W/m 7,9 C 8,5 C 6,7 km/h (2 Bft)
17.04.2016 08:00 22,7 C 8,9 C 51 % 96 % 1005,1 hPa 0,2 l/m 2,3 km/h (1 Bft) S 0,00 h 0,5 UV-I 54 W/m 8,3 C 8,8 C 4,9 km/h (1 Bft)
17.04.2016 09:00 22,8 C 8,2 C 51 % 95 % 1005,9 hPa 0,0 l/m 0,8 km/h (0 Bft) N-NW 0,07 h 0,7 UV-I 93 W/m 7,4 C 8,1 C 1,7 km/h (1 Bft)
17.04.2016 10:00 23,0 C 8,2 C 51 % 95 % 1006,7 hPa 0,2 l/m 0,0 km/h (0 Bft) N 0,00 h 0,8 UV-I 106 W/m 7,4 C 8,2 C 0,0 km/h (0 Bft)
17.04.2016 11:00 23,1 C 8,4 C 50 % 94 % 1007,4 hPa 0,4 l/m 0,2 km/h (0 Bft) W-NW 0,53 h 1,1 UV-I 155 W/m 7,5 C 8,4 C 0,5 km/h (0 Bft)
17.04.2016 12:00 23,0 C 8,4 C 51 % 94 % 1008,5 hPa 0,2 l/m 0,4 km/h (0 Bft) W-NW 0,57 h 1,3 UV-I 161 W/m 7,6 C 8,4 C 1,2 km/h (1 Bft)
17.04.2016 13:00 23,4 C 8,7 C 51 % 94 % 1008,8 hPa 0,0 l/m 0,9 km/h (0 Bft) N 0,07 h 0,9 UV-I 101 W/m 7,8 C 8,7 C 2,3 km/h (1 Bft)
17.04.2016 14:00 23,8 C 8,7 C 51 % 92 % 1009,7 hPa 0,0 l/m 1,6 km/h (1 Bft) NW 0,02 h 0,8 UV-I 88 W/m 7,5 C 8,7 C 3,5 km/h (1 Bft)
17.04.2016 15:00 23,9 C 8,6 C 52 % 90 % 1010,2 hPa 0,0 l/m 0,2 km/h (0 Bft) W-SW 0,08 h 0,7 UV-I 84 W/m 7,1 C 8,6 C 0,4 km/h (0 Bft)
17.04.2016 16:00 23,9 C 9,2 C 52 % 87 % 1010,4 hPa 0,0 l/m 0,7 km/h (0 Bft) NW 0,07 h 0,7 UV-I 107 W/m 7,2 C 9,2 C 1,8 km/h (1 Bft)
17.04.2016 17:00 23,8 C 9,3 C 51 % 84 % 1010,6 hPa 0,0 l/m 2,8 km/h (1 Bft) W-NW 0,25 h 0,8 UV-I 103 W/m 6,8 C 9,2 C 6,0 km/h (2 Bft)
17.04.2016 18:00 23,6 C 8,0 C 51 % 92 % 1011,8 hPa 0,4 l/m 0,5 km/h (0 Bft) NW 0,00 h 0,0 UV-I 27 W/m 6,8 C 8,0 C 1,2 km/h (1 Bft)
17.04.2016 19:00 23,7 C 7,8 C 50 % 93 % 1012,6 hPa 0,0 l/m 1,1 km/h (0 Bft) N 0,00 h 0,0 UV-I 12 W/m 6,7 C 7,8 C 2,8 km/h (1 Bft)
17.04.2016 20:00 23,8 C 7,0 C 51 % 92 % 1013,7 hPa 0,0 l/m 2,2 km/h (1 Bft) N 0,00 h 0,0 UV-I 0 W/m 5,8 C 7,0 C 5,0 km/h (1 Bft)
17.04.2016 21:00 23,8 C 6,3 C 50 % 92 % 1014,3 hPa 0,0 l/m 0,1 km/h (0 Bft) NW 0,00 h 0,0 UV-I 0 W/m 5,1 C 6,3 C 0,3 km/h (0 Bft)
17.04.2016 22:00 23,3 C 5,8 C 49 % 92 % 1015,4 hPa 0,0 l/m 0,0 km/h (0 Bft) N 0,00 h 0,0 UV-I 0 W/m 4,7 C 5,8 C 0,0 km/h (0 Bft)
17.04.2016 23:00 23,1 C 5,5 C 50 % 93 % 1015,8 hPa 0,0 l/m 0,0 km/h (0 Bft) N 0,00 h 0,0 UV-I 0 W/m 4,4 C 5,5 C 0,0 km/h (0 Bft)
Min-Datum _ 14.04.16 12.04.16 11.04.16 12.04.16 17.04.16 - 11.04.16 - - - - 12.04.16 12.04.16 11.04.16
_ Min-Zeit 18:07 05:58 10:42 14:34 02:41 - 00:00 - - - - 05:58 05:58 00:05
Minimum _ 21,5 C 0,3 C 37 % 48 % 1003,0 hPa - 0,0 km/h (0 Bft) - - - - -1,0 C 0,3 C 0,0 km/h (0 Bft)
Max-Datum _ 13.04.16 13.04.16 17.04.16 12.04.16 17.04.16 13.04.16 13.04.16 - 12.04.16 14.04.16 14.04.16 13.04.16 13.04.16 13.04.16
_ Max-Zeit 19:29 15:25 12:19 08:14 23:57 18:05 17:32 - 16:09 13:00 12:29 13:41 15:25 17:32
Maximum _ 24,2 C 17,9 C 53 % 96 % 1016,0 hPa 1,8 l/m 25,7 km/h
W-SW (4 Bft)
- 0,05 h 5,0 UV-I 1074 W/m 10,5 C 17,9 C 37,0 km/h
W-SW (5 Bft)
Durchschnitt _ 23,1 C 8,6 C 46 % 85 % 1009,4 hPa #14,0 l/m 2,2 km/h (1 Bft) S #38:07 h 1,3 UV-I 175 W/m 6,0 C 8,4 C 4,6 km/h (1 Bft)